Terminal Aerodrome Forecast
Issued by NWS Spokane, WA

Home | Current Version | Previous Version | Text Only | Print | Product List | Glossary On
Versions: 1 2 3 4 5 6 7 8 9 10 11 12 13 14 15 16 17 18 19
000
FTUS46 KOTX 192335
TAFLWS
TAF
KLWS 192335Z 2000/2024 VRB03KT P6SM SCT045
     FM200500 13005KT P6SM SCT020 BKN060 OVC200
     FM201600 10004KT P6SM BKN020
     FM201900 VRB05KT P6SM BKN100 BKN250=

USA.gov is the U.S. government's official web portal to all federal, state and local government web resources and services.